sensor_id;sensor_type;location;lat;lon;timestamp;temperature;humidity
23267;DHT22;11802;53.160;8.214;2022-07-29T00:01:48;14.20;99.90
23267;DHT22;11802;53.160;8.214;2022-07-29T00:04:14;14.20;99.90
23267;DHT22;11802;53.160;8.214;2022-07-29T00:06:40;14.20;99.90
23267;DHT22;11802;53.160;8.214;2022-07-29T00:09:06;14.20;99.90
23267;DHT22;11802;53.160;8.214;2022-07-29T00:11:32;14.20;99.90
23267;DHT22;11802;53.160;8.214;2022-07-29T00:13:57;14.20;99.90
23267;DHT22;11802;53.160;8.214;2022-07-29T00:16:23;14.20;99.90
23267;DHT22;11802;53.160;8.214;2022-07-29T00:18:48;14.10;99.90
23267;DHT22;11802;53.160;8.214;2022-07-29T00:21:14;14.10;99.90
23267;DHT22;11802;53.160;8.214;2022-07-29T00:23:40;14.10;99.90
23267;DHT22;11802;53.160;8.214;2022-07-29T00:26:05;14.10;99.90
23267;DHT22;11802;53.160;8.214;2022-07-29T00:28:31;14.10;99.90
23267;DHT22;11802;53.160;8.214;2022-07-29T00:30:57;14.10;99.90
23267;DHT22;11802;53.160;8.214;2022-07-29T00:33:22;14.00;99.90
23267;DHT22;11802;53.160;8.214;2022-07-29T00:35:48;14.00;99.90
23267;DHT22;11802;53.160;8.214;2022-07-29T00:38:16;14.00;99.90
23267;DHT22;11802;53.160;8.214;2022-07-29T00:40:42;14.00;99.90
23267;DHT22;11802;53.160;8.214;2022-07-29T00:43:08;13.90;99.90
23267;DHT22;11802;53.160;8.214;2022-07-29T00:45:34;13.90;99.90
23267;DHT22;11802;53.160;8.214;2022-07-29T00:48:00;13.90;99.90
23267;DHT22;11802;53.160;8.214;2022-07-29T00:50:26;13.90;99.90
23267;DHT22;11802;53.160;8.214;2022-07-29T00:52:52;13.90;99.90
23267;DHT22;11802;53.160;8.214;2022-07-29T00:55:18;13.90;99.90
23267;DHT22;11802;53.160;8.214;2022-07-29T00:57:44;13.90;99.90
23267;DHT22;11802;53.160;8.214;2022-07-29T01:00:15;13.90;99.90
23267;DHT22;11802;53.160;8.214;2022-07-29T01:02:40;13.90;99.90
23267;DHT22;11802;53.160;8.214;2022-07-29T01:05:06;13.80;99.90
23267;DHT22;11802;53.160;8.214;2022-07-29T01:07:34;13.80;99.90
23267;DHT22;11802;53.160;8.214;2022-07-29T01:10:09;13.80;99.90
23267;DHT22;11802;53.160;8.214;2022-07-29T01:12:36;13.80;99.90
23267;DHT22;11802;53.160;8.214;2022-07-29T01:15:08;13.80;99.90
23267;DHT22;11802;53.160;8.214;2022-07-29T01:22:42;13.70;99.90
23267;DHT22;11802;53.160;8.214;2022-07-29T01:25:32;13.70;99.90
23267;DHT22;11802;53.160;8.214;2022-07-29T01:31:07;13.60;99.90
23267;DHT22;11802;53.160;8.214;2022-07-29T01:33:40;13.60;99.90
23267;DHT22;11802;53.160;8.214;2022-07-29T01:36:29;13.60;99.90
23267;DHT22;11802;53.160;8.214;2022-07-29T01:39:09;13.60;99.90
23267;DHT22;11802;53.160;8.214;2022-07-29T01:41:38;13.60;99.90
23267;DHT22;11802;53.160;8.214;2022-07-29T01:44:22;13.60;99.90
23267;DHT22;11802;53.160;8.214;2022-07-29T01:46:58;13.70;99.90
23267;DHT22;11802;53.160;8.214;2022-07-29T01:49:31;13.60;99.90
23267;DHT22;11802;53.160;8.214;2022-07-29T01:52:03;13.60;99.90
23267;DHT22;11802;53.160;8.214;2022-07-29T01:54:35;13.60;99.90
23267;DHT22;11802;53.160;8.214;2022-07-29T01:57:06;13.60;99.90
23267;DHT22;11802;53.160;8.214;2022-07-29T01:59:35;13.60;99.90
23267;DHT22;11802;53.160;8.214;2022-07-29T02:02:02;13.60;99.90
23267;DHT22;11802;53.160;8.214;2022-07-29T02:04:28;13.60;99.90
23267;DHT22;11802;53.160;8.214;2022-07-29T02:06:57;13.60;99.90
23267;DHT22;11802;53.160;8.214;2022-07-29T02:09:24;13.60;99.90
23267;DHT22;11802;53.160;8.214;2022-07-29T02:11:53;13.60;99.90
23267;DHT22;11802;53.160;8.214;2022-07-29T02:14:22;13.60;99.90
23267;DHT22;11802;53.160;8.214;2022-07-29T02:16:52;13.60;99.90
23267;DHT22;11802;53.160;8.214;2022-07-29T02:19:19;13.50;99.90
23267;DHT22;11802;53.160;8.214;2022-07-29T02:21:46;13.50;99.90
23267;DHT22;11802;53.160;8.214;2022-07-29T02:24:12;13.40;99.90
23267;DHT22;11802;53.160;8.214;2022-07-29T02:26:40;13.40;99.90
23267;DHT22;11802;53.160;8.214;2022-07-29T02:29:08;13.40;99.90
23267;DHT22;11802;53.160;8.214;2022-07-29T02:31:35;13.40;99.90
23267;DHT22;11802;53.160;8.214;2022-07-29T02:34:07;13.40;99.90
23267;DHT22;11802;53.160;8.214;2022-07-29T02:36:34;13.40;99.90
23267;DHT22;11802;53.160;8.214;2022-07-29T02:39:00;13.30;99.90
23267;DHT22;11802;53.160;8.214;2022-07-29T02:41:30;13.40;99.90
23267;DHT22;11802;53.160;8.214;2022-07-29T02:43:58;13.40;99.90
23267;DHT22;11802;53.160;8.214;2022-07-29T02:46:31;13.30;99.90
23267;DHT22;11802;53.160;8.214;2022-07-29T02:49:13;13.40;99.90
23267;DHT22;11802;53.160;8.214;2022-07-29T02:51:46;13.30;99.90
23267;DHT22;11802;53.160;8.214;2022-07-29T02:54:23;13.40;99.90
23267;DHT22;11802;53.160;8.214;2022-07-29T02:56:52;13.40;99.90
23267;DHT22;11802;53.160;8.214;2022-07-29T02:59:25;13.40;99.90
23267;DHT22;11802;53.160;8.214;2022-07-29T03:01:52;13.40;99.90
23267;DHT22;11802;53.160;8.214;2022-07-29T03:04:20;13.40;99.90
23267;DHT22;11802;53.160;8.214;2022-07-29T03:06:47;13.40;99.90
23267;DHT22;11802;53.160;8.214;2022-07-29T03:09:14;13.30;99.90
23267;DHT22;11802;53.160;8.214;2022-07-29T03:11:40;13.40;99.90
23267;DHT22;11802;53.160;8.214;2022-07-29T03:14:07;13.30;99.90
23267;DHT22;11802;53.160;8.214;2022-07-29T03:16:33;13.30;99.90
23267;DHT22;11802;53.160;8.214;2022-07-29T03:19:02;13.40;99.90
23267;DHT22;11802;53.160;8.214;2022-07-29T03:21:28;13.30;99.90
23267;DHT22;11802;53.160;8.214;2022-07-29T03:23:53;13.30;99.90
23267;DHT22;11802;53.160;8.214;2022-07-29T03:26:19;13.40;99.90
23267;DHT22;11802;53.160;8.214;2022-07-29T03:28:45;13.40;99.90
23267;DHT22;11802;53.160;8.214;2022-07-29T03:31:10;13.30;99.90
23267;DHT22;11802;53.160;8.214;2022-07-29T03:33:36;13.30;99.90
23267;DHT22;11802;53.160;8.214;2022-07-29T03:36:01;13.30;99.90
23267;DHT22;11802;53.160;8.214;2022-07-29T03:38:29;13.40;99.90
23267;DHT22;11802;53.160;8.214;2022-07-29T03:41:00;13.40;99.90
23267;DHT22;11802;53.160;8.214;2022-07-29T03:43:29;13.40;99.90
23267;DHT22;11802;53.160;8.214;2022-07-29T03:45:57;13.30;99.90
23267;DHT22;11802;53.160;8.214;2022-07-29T03:48:26;13.40;99.90
23267;DHT22;11802;53.160;8.214;2022-07-29T03:50:54;13.30;99.90
23267;DHT22;11802;53.160;8.214;2022-07-29T03:53:20;13.40;99.90
23267;DHT22;11802;53.160;8.214;2022-07-29T03:55:53;13.40;99.90
23267;DHT22;11802;53.160;8.214;2022-07-29T03:58:19;13.40;99.90
23267;DHT22;11802;53.160;8.214;2022-07-29T04:00:46;13.40;99.90
23267;DHT22;11802;53.160;8.214;2022-07-29T04:03:12;13.40;99.90
23267;DHT22;11802;53.160;8.214;2022-07-29T04:05:38;13.40;99.90
23267;DHT22;11802;53.160;8.214;2022-07-29T04:08:04;13.40;99.90
23267;DHT22;11802;53.160;8.214;2022-07-29T04:10:30;13.40;99.90
23267;DHT22;11802;53.160;8.214;2022-07-29T04:12:55;13.40;99.90
23267;DHT22;11802;53.160;8.214;2022-07-29T04:15:21;13.40;99.90
23267;DHT22;11802;53.160;8.214;2022-07-29T04:17:46;13.40;99.90
23267;DHT22;11802;53.160;8.214;2022-07-29T04:20:12;13.40;99.90
23267;DHT22;11802;53.160;8.214;2022-07-29T04:22:39;13.40;99.90
23267;DHT22;11802;53.160;8.214;2022-07-29T04:25:05;13.40;99.90
23267;DHT22;11802;53.160;8.214;2022-07-29T04:27:30;13.50;99.90
23267;DHT22;11802;53.160;8.214;2022-07-29T04:29:56;13.40;99.90
23267;DHT22;11802;53.160;8.214;2022-07-29T04:32:22;13.50;99.90
23267;DHT22;11802;53.160;8.214;2022-07-29T04:34:47;13.50;99.90
23267;DHT22;11802;53.160;8.214;2022-07-29T04:37:13;13.50;99.90
23267;DHT22;11802;53.160;8.214;2022-07-29T04:39:38;13.60;99.90
23267;DHT22;11802;53.160;8.214;2022-07-29T04:42:04;13.50;99.90
23267;DHT22;11802;53.160;8.214;2022-07-29T04:44:30;13.60;99.90
23267;DHT22;11802;53.160;8.214;2022-07-29T04:46:56;13.60;99.90
23267;DHT22;11802;53.160;8.214;2022-07-29T04:49:21;13.60;99.90
23267;DHT22;11802;53.160;8.214;2022-07-29T04:51:47;13.70;99.90
23267;DHT22;11802;53.160;8.214;2022-07-29T04:54:12;13.70;99.90
23267;DHT22;11802;53.160;8.214;2022-07-29T04:56:38;13.70;99.90
23267;DHT22;11802;53.160;8.214;2022-07-29T04:59:03;13.70;99.90
23267;DHT22;11802;53.160;8.214;2022-07-29T05:01:29;13.70;99.90
23267;DHT22;11802;53.160;8.214;2022-07-29T05:03:54;13.70;99.90
23267;DHT22;11802;53.160;8.214;2022-07-29T05:06:20;13.80;99.90
23267;DHT22;11802;53.160;8.214;2022-07-29T05:08:45;13.80;99.90
23267;DHT22;11802;53.160;8.214;2022-07-29T05:11:11;13.80;99.90
23267;DHT22;11802;53.160;8.214;2022-07-29T05:13:37;13.80;99.90
23267;DHT22;11802;53.160;8.214;2022-07-29T05:16:02;13.80;99.90
23267;DHT22;11802;53.160;8.214;2022-07-29T05:18:28;13.80;99.90
23267;DHT22;11802;53.160;8.214;2022-07-29T05:20:53;13.90;99.90
23267;DHT22;11802;53.160;8.214;2022-07-29T05:23:19;13.90;99.90
23267;DHT22;11802;53.160;8.214;2022-07-29T05:25:44;13.90;99.90
23267;DHT22;11802;53.160;8.214;2022-07-29T05:28:11;14.00;99.90
23267;DHT22;11802;53.160;8.214;2022-07-29T05:30:37;14.00;99.90
23267;DHT22;11802;53.160;8.214;2022-07-29T05:33:02;14.00;99.90
23267;DHT22;11802;53.160;8.214;2022-07-29T05:35:28;14.10;99.90
23267;DHT22;11802;53.160;8.214;2022-07-29T05:37:53;14.10;99.90
23267;DHT22;11802;53.160;8.214;2022-07-29T05:40:19;14.20;99.90
23267;DHT22;11802;53.160;8.214;2022-07-29T05:42:45;14.20;99.90
23267;DHT22;11802;53.160;8.214;2022-07-29T05:45:11;14.30;99.90
23267;DHT22;11802;53.160;8.214;2022-07-29T05:47:36;14.40;99.90
23267;DHT22;11802;53.160;8.214;2022-07-29T05:50:02;14.40;99.90
23267;DHT22;11802;53.160;8.214;2022-07-29T05:52:27;14.50;99.90
23267;DHT22;11802;53.160;8.214;2022-07-29T05:54:53;14.40;99.90
23267;DHT22;11802;53.160;8.214;2022-07-29T05:57:21;14.50;99.90
23267;DHT22;11802;53.160;8.214;2022-07-29T05:59:47;14.60;99.90
23267;DHT22;11802;53.160;8.214;2022-07-29T06:02:13;14.80;99.90
23267;DHT22;11802;53.160;8.214;2022-07-29T06:04:38;14.90;99.90
23267;DHT22;11802;53.160;8.214;2022-07-29T06:07:04;15.10;99.90
23267;DHT22;11802;53.160;8.214;2022-07-29T06:09:29;15.30;99.90
23267;DHT22;11802;53.160;8.214;2022-07-29T06:11:55;15.40;99.90
23267;DHT22;11802;53.160;8.214;2022-07-29T06:14:20;15.80;99.90
23267;DHT22;11802;53.160;8.214;2022-07-29T06:16:46;16.10;99.90
23267;DHT22;11802;53.160;8.214;2022-07-29T06:19:12;16.30;99.90
23267;DHT22;11802;53.160;8.214;2022-07-29T06:21:42;16.80;99.90
23267;DHT22;11802;53.160;8.214;2022-07-29T06:24:09;17.20;99.90
23267;DHT22;11802;53.160;8.214;2022-07-29T06:26:35;17.40;99.90
23267;DHT22;11802;53.160;8.214;2022-07-29T06:29:01;17.20;99.90
23267;DHT22;11802;53.160;8.214;2022-07-29T06:31:26;16.90;99.90
23267;DHT22;11802;53.160;8.214;2022-07-29T06:33:52;16.80;99.90
23267;DHT22;11802;53.160;8.214;2022-07-29T06:36:18;16.80;99.90
23267;DHT22;11802;53.160;8.214;2022-07-29T06:38:43;16.60;99.90
23267;DHT22;11802;53.160;8.214;2022-07-29T06:41:09;16.70;99.90
23267;DHT22;11802;53.160;8.214;2022-07-29T06:43:39;16.70;99.90
23267;DHT22;11802;53.160;8.214;2022-07-29T06:46:14;16.60;99.90
23267;DHT22;11802;53.160;8.214;2022-07-29T06:48:41;16.60;99.90
23267;DHT22;11802;53.160;8.214;2022-07-29T06:51:07;16.60;99.90
23267;DHT22;11802;53.160;8.214;2022-07-29T06:53:34;16.50;99.90
23267;DHT22;11802;53.160;8.214;2022-07-29T06:56:01;16.50;99.90
23267;DHT22;11802;53.160;8.214;2022-07-29T06:58:28;16.60;99.90
23267;DHT22;11802;53.160;8.214;2022-07-29T07:00:53;16.70;99.90
23267;DHT22;11802;53.160;8.214;2022-07-29T07:03:19;16.80;99.90
23267;DHT22;11802;53.160;8.214;2022-07-29T07:05:45;17.00;99.90
23267;DHT22;11802;53.160;8.214;2022-07-29T07:08:11;17.20;99.90
23267;DHT22;11802;53.160;8.214;2022-07-29T07:10:37;17.50;99.90
23267;DHT22;11802;53.160;8.214;2022-07-29T07:13:04;17.90;99.90
23267;DHT22;11802;53.160;8.214;2022-07-29T07:15:29;18.20;99.90
23267;DHT22;11802;53.160;8.214;2022-07-29T07:17:55;18.60;99.90
23267;DHT22;11802;53.160;8.214;2022-07-29T07:20:21;19.10;99.90
23267;DHT22;11802;53.160;8.214;2022-07-29T07:22:47;19.30;99.90
23267;DHT22;11802;53.160;8.214;2022-07-29T07:25:12;19.70;99.90
23267;DHT22;11802;53.160;8.214;2022-07-29T07:27:38;19.90;99.90
23267;DHT22;11802;53.160;8.214;2022-07-29T07:30:05;20.00;99.90
23267;DHT22;11802;53.160;8.214;2022-07-29T07:32:32;20.30;99.90
23267;DHT22;11802;53.160;8.214;2022-07-29T07:34:57;20.80;99.90
23267;DHT22;11802;53.160;8.214;2022-07-29T07:37:24;21.20;99.90
23267;DHT22;11802;53.160;8.214;2022-07-29T07:39:50;21.60;99.90
23267;DHT22;11802;53.160;8.214;2022-07-29T07:42:16;22.20;99.90
23267;DHT22;11802;53.160;8.214;2022-07-29T07:44:42;22.50;99.90
23267;DHT22;11802;53.160;8.214;2022-07-29T07:47:07;23.60;99.90
23267;DHT22;11802;53.160;8.214;2022-07-29T07:49:33;25.10;99.90
23267;DHT22;11802;53.160;8.214;2022-07-29T07:51:59;26.20;99.90
23267;DHT22;11802;53.160;8.214;2022-07-29T07:54:24;26.00;99.90
23267;DHT22;11802;53.160;8.214;2022-07-29T07:56:50;25.20;99.90
23267;DHT22;11802;53.160;8.214;2022-07-29T07:59:16;25.40;99.90
23267;DHT22;11802;53.160;8.214;2022-07-29T08:01:42;25.30;99.90
23267;DHT22;11802;53.160;8.214;2022-07-29T08:04:08;25.30;99.90
23267;DHT22;11802;53.160;8.214;2022-07-29T08:06:34;24.40;99.90
23267;DHT22;11802;53.160;8.214;2022-07-29T08:09:03;25.00;99.90
23267;DHT22;11802;53.160;8.214;2022-07-29T08:11:29;25.20;99.90
23267;DHT22;11802;53.160;8.214;2022-07-29T08:13:55;25.20;99.90
23267;DHT22;11802;53.160;8.214;2022-07-29T08:16:21;25.60;99.90
23267;DHT22;11802;53.160;8.214;2022-07-29T08:18:47;26.40;99.90
23267;DHT22;11802;53.160;8.214;2022-07-29T08:21:14;27.40;99.90
23267;DHT22;11802;53.160;8.214;2022-07-29T08:23:40;27.50;99.90
23267;DHT22;11802;53.160;8.214;2022-07-29T08:26:11;27.60;99.90
23267;DHT22;11802;53.160;8.214;2022-07-29T08:28:38;27.70;99.90
23267;DHT22;11802;53.160;8.214;2022-07-29T08:31:05;27.90;99.90
23267;DHT22;11802;53.160;8.214;2022-07-29T08:33:30;27.60;99.90
23267;DHT22;11802;53.160;8.214;2022-07-29T08:35:56;27.80;99.90
23267;DHT22;11802;53.160;8.214;2022-07-29T08:38:21;27.40;99.90
23267;DHT22;11802;53.160;8.214;2022-07-29T08:40:47;28.60;99.90
23267;DHT22;11802;53.160;8.214;2022-07-29T08:43:13;29.30;99.90
23267;DHT22;11802;53.160;8.214;2022-07-29T08:45:46;28.90;99.90
23267;DHT22;11802;53.160;8.214;2022-07-29T08:48:13;28.00;99.90
23267;DHT22;11802;53.160;8.214;2022-07-29T08:50:40;28.00;99.90
23267;DHT22;11802;53.160;8.214;2022-07-29T08:53:10;27.80;99.90
23267;DHT22;11802;53.160;8.214;2022-07-29T08:55:39;28.20;99.90
23267;DHT22;11802;53.160;8.214;2022-07-29T08:58:06;28.90;99.90
23267;DHT22;11802;53.160;8.214;2022-07-29T09:00:32;29.90;99.90
23267;DHT22;11802;53.160;8.214;2022-07-29T09:03:00;28.50;99.90
23267;DHT22;11802;53.160;8.214;2022-07-29T09:05:27;27.10;99.90
23267;DHT22;11802;53.160;8.214;2022-07-29T09:07:53;27.10;99.90
23267;DHT22;11802;53.160;8.214;2022-07-29T09:10:19;25.90;99.90
23267;DHT22;11802;53.160;8.214;2022-07-29T09:12:45;26.10;99.90
23267;DHT22;11802;53.160;8.214;2022-07-29T09:15:10;25.50;99.90
23267;DHT22;11802;53.160;8.214;2022-07-29T09:17:44;25.80;99.90
23267;DHT22;11802;53.160;8.214;2022-07-29T09:20:15;26.10;99.90
23267;DHT22;11802;53.160;8.214;2022-07-29T09:22:41;26.20;99.90
23267;DHT22;11802;53.160;8.214;2022-07-29T09:25:07;26.00;99.90
23267;DHT22;11802;53.160;8.214;2022-07-29T09:27:32;26.10;99.90
23267;DHT22;11802;53.160;8.214;2022-07-29T09:30:07;25.60;99.90
23267;DHT22;11802;53.160;8.214;2022-07-29T09:32:57;25.50;99.90
23267;DHT22;11802;53.160;8.214;2022-07-29T09:35:25;25.20;99.90
23267;DHT22;11802;53.160;8.214;2022-07-29T09:37:51;25.00;99.90
23267;DHT22;11802;53.160;8.214;2022-07-29T09:40:22;25.10;99.90
23267;DHT22;11802;53.160;8.214;2022-07-29T09:42:49;25.80;99.90
23267;DHT22;11802;53.160;8.214;2022-07-29T09:45:29;26.00;99.90
23267;DHT22;11802;53.160;8.214;2022-07-29T09:47:54;25.80;99.90
23267;DHT22;11802;53.160;8.214;2022-07-29T09:50:22;25.90;99.90
23267;DHT22;11802;53.160;8.214;2022-07-29T09:52:52;25.70;99.90
23267;DHT22;11802;53.160;8.214;2022-07-29T09:55:19;25.50;99.90
23267;DHT22;11802;53.160;8.214;2022-07-29T09:57:46;25.60;99.90
23267;DHT22;11802;53.160;8.214;2022-07-29T10:00:19;25.20;99.90
23267;DHT22;11802;53.160;8.214;2022-07-29T10:02:47;25.20;99.90
23267;DHT22;11802;53.160;8.214;2022-07-29T10:05:24;25.30;99.90
23267;DHT22;11802;53.160;8.214;2022-07-29T10:07:53;25.60;99.90
23267;DHT22;11802;53.160;8.214;2022-07-29T10:10:24;26.10;99.90
23267;DHT22;11802;53.160;8.214;2022-07-29T10:12:58;26.20;99.90
23267;DHT22;11802;53.160;8.214;2022-07-29T10:15:26;27.00;99.90
23267;DHT22;11802;53.160;8.214;2022-07-29T10:17:53;27.50;99.90
23267;DHT22;11802;53.160;8.214;2022-07-29T10:20:20;27.60;99.90
23267;DHT22;11802;53.160;8.214;2022-07-29T10:22:47;28.00;99.90
23267;DHT22;11802;53.160;8.214;2022-07-29T10:25:14;28.50;99.90
23267;DHT22;11802;53.160;8.214;2022-07-29T10:27:40;29.00;99.90
23267;DHT22;11802;53.160;8.214;2022-07-29T10:30:06;29.00;99.90
23267;DHT22;11802;53.160;8.214;2022-07-29T10:43:43;26.70;99.90
23267;DHT22;11802;53.160;8.214;2022-07-29T10:46:10;26.50;99.90
23267;DHT22;11802;53.160;8.214;2022-07-29T10:49:08;27.00;99.90
23267;DHT22;11802;53.160;8.214;2022-07-29T10:57:17;27.00;99.90
23267;DHT22;11802;53.160;8.214;2022-07-29T10:59:44;27.20;99.90
23267;DHT22;11802;53.160;8.214;2022-07-29T11:07:23;26.50;99.90
23267;DHT22;11802;53.160;8.214;2022-07-29T11:10:20;26.50;99.90
23267;DHT22;11802;53.160;8.214;2022-07-29T11:12:47;26.40;99.90
23267;DHT22;11802;53.160;8.214;2022-07-29T11:15:16;26.60;99.90
23267;DHT22;11802;53.160;8.214;2022-07-29T11:25:45;27.40;99.90
23267;DHT22;11802;53.160;8.214;2022-07-29T11:28:16;28.00;99.90
23267;DHT22;11802;53.160;8.214;2022-07-29T11:30:52;28.20;99.90
23267;DHT22;11802;53.160;8.214;2022-07-29T11:33:31;28.40;99.90
23267;DHT22;11802;53.160;8.214;2022-07-29T11:36:14;28.30;99.90
23267;DHT22;11802;53.160;8.214;2022-07-29T11:38:40;27.50;99.90
23267;DHT22;11802;53.160;8.214;2022-07-29T11:41:28;27.30;99.90
23267;DHT22;11802;53.160;8.214;2022-07-29T11:43:59;27.40;99.90
23267;DHT22;11802;53.160;8.214;2022-07-29T11:46:47;27.30;99.90
23267;DHT22;11802;53.160;8.214;2022-07-29T11:51:51;27.40;99.90
23267;DHT22;11802;53.160;8.214;2022-07-29T11:54:23;26.90;99.90
23267;DHT22;11802;53.160;8.214;2022-07-29T11:56:49;26.70;99.90
23267;DHT22;11802;53.160;8.214;2022-07-29T11:59:15;26.30;99.90
23267;DHT22;11802;53.160;8.214;2022-07-29T12:01:57;26.10;99.90
23267;DHT22;11802;53.160;8.214;2022-07-29T12:04:23;26.20;99.90
23267;DHT22;11802;53.160;8.214;2022-07-29T12:06:56;26.10;99.90
23267;DHT22;11802;53.160;8.214;2022-07-29T12:09:22;25.70;99.90
23267;DHT22;11802;53.160;8.214;2022-07-29T12:11:49;25.70;99.90
23267;DHT22;11802;53.160;8.214;2022-07-29T12:14:39;25.60;99.90
23267;DHT22;11802;53.160;8.214;2022-07-29T12:17:31;25.70;99.90
23267;DHT22;11802;53.160;8.214;2022-07-29T12:19:59;25.70;99.90
23267;DHT22;11802;53.160;8.214;2022-07-29T12:24:55;25.60;99.90
23267;DHT22;11802;53.160;8.214;2022-07-29T12:27:20;25.50;99.90
23267;DHT22;11802;53.160;8.214;2022-07-29T12:29:59;25.60;99.90
23267;DHT22;11802;53.160;8.214;2022-07-29T12:32:36;25.50;99.90
23267;DHT22;11802;53.160;8.214;2022-07-29T12:35:11;25.50;99.90
23267;DHT22;11802;53.160;8.214;2022-07-29T12:37:39;25.80;99.90
23267;DHT22;11802;53.160;8.214;2022-07-29T12:40:09;25.60;99.90
23267;DHT22;11802;53.160;8.214;2022-07-29T12:42:35;25.70;99.90
23267;DHT22;11802;53.160;8.214;2022-07-29T12:45:01;25.80;99.90
23267;DHT22;11802;53.160;8.214;2022-07-29T12:47:27;26.00;99.90
23267;DHT22;11802;53.160;8.214;2022-07-29T12:50:12;25.80;99.90
23267;DHT22;11802;53.160;8.214;2022-07-29T12:52:39;25.90;99.90
23267;DHT22;11802;53.160;8.214;2022-07-29T12:55:05;26.10;99.90
23267;DHT22;11802;53.160;8.214;2022-07-29T12:57:31;26.30;99.90
23267;DHT22;11802;53.160;8.214;2022-07-29T13:00:16;26.10;99.90
23267;DHT22;11802;53.160;8.214;2022-07-29T13:02:42;26.30;99.90
23267;DHT22;11802;53.160;8.214;2022-07-29T13:05:09;26.30;99.90
23267;DHT22;11802;53.160;8.214;2022-07-29T13:07:37;26.20;99.90
23267;DHT22;11802;53.160;8.214;2022-07-29T13:12:35;25.90;99.90
23267;DHT22;11802;53.160;8.214;2022-07-29T13:15:12;26.00;99.90
23267;DHT22;11802;53.160;8.214;2022-07-29T13:17:42;26.10;99.90
23267;DHT22;11802;53.160;8.214;2022-07-29T13:20:10;26.20;99.90
23267;DHT22;11802;53.160;8.214;2022-07-29T13:22:40;26.40;99.90
23267;DHT22;11802;53.160;8.214;2022-07-29T13:25:08;26.10;99.90
23267;DHT22;11802;53.160;8.214;2022-07-29T13:27:35;26.10;99.90
23267;DHT22;11802;53.160;8.214;2022-07-29T13:30:08;25.90;99.90
23267;DHT22;11802;53.160;8.214;2022-07-29T13:32:35;25.90;99.90
23267;DHT22;11802;53.160;8.214;2022-07-29T13:35:04;26.00;99.90
23267;DHT22;11802;53.160;8.214;2022-07-29T13:37:30;26.10;99.90
23267;DHT22;11802;53.160;8.214;2022-07-29T13:39:58;26.00;99.90
23267;DHT22;11802;53.160;8.214;2022-07-29T13:42:24;26.00;99.90
23267;DHT22;11802;53.160;8.214;2022-07-29T13:44:50;26.10;99.90
23267;DHT22;11802;53.160;8.214;2022-07-29T13:47:19;26.10;99.90
23267;DHT22;11802;53.160;8.214;2022-07-29T13:49:45;26.20;99.90
23267;DHT22;11802;53.160;8.214;2022-07-29T13:52:10;26.10;99.90
23267;DHT22;11802;53.160;8.214;2022-07-29T13:54:36;26.00;99.90
23267;DHT22;11802;53.160;8.214;2022-07-29T13:57:05;26.00;99.90
23267;DHT22;11802;53.160;8.214;2022-07-29T13:59:31;26.00;99.90
23267;DHT22;11802;53.160;8.214;2022-07-29T14:01:56;25.90;99.90
23267;DHT22;11802;53.160;8.214;2022-07-29T14:04:22;25.90;99.90
23267;DHT22;11802;53.160;8.214;2022-07-29T14:06:49;25.90;99.90
23267;DHT22;11802;53.160;8.214;2022-07-29T14:09:15;25.80;99.90
23267;DHT22;11802;53.160;8.214;2022-07-29T14:11:40;25.80;99.90
23267;DHT22;11802;53.160;8.214;2022-07-29T14:14:06;25.70;99.90
23267;DHT22;11802;53.160;8.214;2022-07-29T14:16:32;25.70;99.90
23267;DHT22;11802;53.160;8.214;2022-07-29T14:18:57;25.70;99.90
23267;DHT22;11802;53.160;8.214;2022-07-29T14:21:23;25.80;99.90
23267;DHT22;11802;53.160;8.214;2022-07-29T14:23:51;25.80;99.90
23267;DHT22;11802;53.160;8.214;2022-07-29T14:26:18;25.80;99.90
23267;DHT22;11802;53.160;8.214;2022-07-29T14:28:43;25.50;99.90
23267;DHT22;11802;53.160;8.214;2022-07-29T14:31:09;25.70;99.90
23267;DHT22;11802;53.160;8.214;2022-07-29T14:33:35;25.80;99.90
23267;DHT22;11802;53.160;8.214;2022-07-29T14:36:00;25.70;99.90
23267;DHT22;11802;53.160;8.214;2022-07-29T14:38:26;25.70;99.90
23267;DHT22;11802;53.160;8.214;2022-07-29T14:40:51;25.70;99.90
23267;DHT22;11802;53.160;8.214;2022-07-29T14:43:17;25.60;99.90
23267;DHT22;11802;53.160;8.214;2022-07-29T14:45:43;25.50;99.90
23267;DHT22;11802;53.160;8.214;2022-07-29T14:48:08;25.20;99.90
23267;DHT22;11802;53.160;8.214;2022-07-29T14:50:34;25.10;99.90
23267;DHT22;11802;53.160;8.214;2022-07-29T14:53:00;25.10;99.90
23267;DHT22;11802;53.160;8.214;2022-07-29T14:55:26;24.90;99.90
23267;DHT22;11802;53.160;8.214;2022-07-29T14:57:52;24.80;99.90
23267;DHT22;11802;53.160;8.214;2022-07-29T15:00:18;24.80;99.90
23267;DHT22;11802;53.160;8.214;2022-07-29T15:02:44;24.70;99.90
23267;DHT22;11802;53.160;8.214;2022-07-29T15:05:10;24.60;99.90
23267;DHT22;11802;53.160;8.214;2022-07-29T15:07:35;24.40;99.90
23267;DHT22;11802;53.160;8.214;2022-07-29T15:10:01;24.30;99.90
23267;DHT22;11802;53.160;8.214;2022-07-29T15:12:27;24.20;99.90
23267;DHT22;11802;53.160;8.214;2022-07-29T15:14:53;24.20;99.90
23267;DHT22;11802;53.160;8.214;2022-07-29T15:17:18;24.10;99.90
23267;DHT22;11802;53.160;8.214;2022-07-29T15:19:45;23.90;99.90
23267;DHT22;11802;53.160;8.214;2022-07-29T15:22:11;23.80;99.90
23267;DHT22;11802;53.160;8.214;2022-07-29T15:24:36;23.70;99.90
23267;DHT22;11802;53.160;8.214;2022-07-29T15:27:02;23.50;99.90
23267;DHT22;11802;53.160;8.214;2022-07-29T15:29:27;23.30;99.90
23267;DHT22;11802;53.160;8.214;2022-07-29T15:31:53;23.20;99.90
23267;DHT22;11802;53.160;8.214;2022-07-29T15:34:18;23.00;99.90
23267;DHT22;11802;53.160;8.214;2022-07-29T15:36:46;22.90;99.90
23267;DHT22;11802;53.160;8.214;2022-07-29T15:39:11;22.70;99.90
23267;DHT22;11802;53.160;8.214;2022-07-29T15:41:37;22.60;99.90
23267;DHT22;11802;53.160;8.214;2022-07-29T15:44:02;22.50;99.90
23267;DHT22;11802;53.160;8.214;2022-07-29T15:46:28;22.40;99.90
23267;DHT22;11802;53.160;8.214;2022-07-29T15:49:12;22.30;99.90
23267;DHT22;11802;53.160;8.214;2022-07-29T15:51:38;22.20;99.90
23267;DHT22;11802;53.160;8.214;2022-07-29T15:54:04;22.10;99.90
23267;DHT22;11802;53.160;8.214;2022-07-29T15:56:30;22.00;99.90
23267;DHT22;11802;53.160;8.214;2022-07-29T15:58:56;21.90;99.90
23267;DHT22;11802;53.160;8.214;2022-07-29T16:01:22;21.80;99.90
23267;DHT22;11802;53.160;8.214;2022-07-29T16:03:48;21.70;99.90
23267;DHT22;11802;53.160;8.214;2022-07-29T16:06:13;21.70;99.90
23267;DHT22;11802;53.160;8.214;2022-07-29T16:08:39;21.60;99.90
23267;DHT22;11802;53.160;8.214;2022-07-29T16:11:04;21.50;99.90
23267;DHT22;11802;53.160;8.214;2022-07-29T16:13:30;21.50;99.90
23267;DHT22;11802;53.160;8.214;2022-07-29T16:15:55;21.40;99.90
23267;DHT22;11802;53.160;8.214;2022-07-29T16:18:21;21.40;99.90
23267;DHT22;11802;53.160;8.214;2022-07-29T16:20:47;21.40;99.90